sensor_id;sensor_type;location;lat;lon;timestamp;temperature;humidity
14741;DHT22;7462;53.530;9.414;2023-03-23T00:01:07;10.40;99.90
14741;DHT22;7462;53.530;9.414;2023-03-23T00:03:36;10.30;99.90
14741;DHT22;7462;53.530;9.414;2023-03-23T00:06:03;10.40;99.90
14741;DHT22;7462;53.530;9.414;2023-03-23T00:08:32;10.40;99.90
14741;DHT22;7462;53.530;9.414;2023-03-23T00:11:03;10.30;99.90
14741;DHT22;7462;53.530;9.414;2023-03-23T00:13:30;10.40;99.90
14741;DHT22;7462;53.530;9.414;2023-03-23T00:16:00;10.40;99.90
14741;DHT22;7462;53.530;9.414;2023-03-23T00:18:27;10.40;99.90
14741;DHT22;7462;53.530;9.414;2023-03-23T00:20:55;10.40;99.90
14741;DHT22;7462;53.530;9.414;2023-03-23T00:23:25;10.40;99.90
14741;DHT22;7462;53.530;9.414;2023-03-23T00:25:53;10.40;99.90
14741;DHT22;7462;53.530;9.414;2023-03-23T00:28:23;10.40;99.90
14741;DHT22;7462;53.530;9.414;2023-03-23T00:30:56;10.40;99.90
14741;DHT22;7462;53.530;9.414;2023-03-23T00:33:28;10.40;99.90
14741;DHT22;7462;53.530;9.414;2023-03-23T00:35:55;10.40;99.90
14741;DHT22;7462;53.530;9.414;2023-03-23T00:38:23;10.40;99.90
14741;DHT22;7462;53.530;9.414;2023-03-23T00:40:53;10.50;99.90
14741;DHT22;7462;53.530;9.414;2023-03-23T00:43:24;10.50;99.90
14741;DHT22;7462;53.530;9.414;2023-03-23T00:45:55;10.40;99.90
14741;DHT22;7462;53.530;9.414;2023-03-23T00:48:24;10.50;99.90
14741;DHT22;7462;53.530;9.414;2023-03-23T00:50:51;10.50;99.90
14741;DHT22;7462;53.530;9.414;2023-03-23T00:53:20;10.50;99.90
14741;DHT22;7462;53.530;9.414;2023-03-23T00:55:48;10.50;99.90
14741;DHT22;7462;53.530;9.414;2023-03-23T00:58:16;10.50;99.90
14741;DHT22;7462;53.530;9.414;2023-03-23T01:00:43;10.50;99.90
14741;DHT22;7462;53.530;9.414;2023-03-23T01:03:10;10.50;99.90
14741;DHT22;7462;53.530;9.414;2023-03-23T01:05:45;10.60;99.90
14741;DHT22;7462;53.530;9.414;2023-03-23T01:08:14;10.50;99.90
14741;DHT22;7462;53.530;9.414;2023-03-23T01:10:42;10.50;99.90
14741;DHT22;7462;53.530;9.414;2023-03-23T01:13:10;10.50;99.90
14741;DHT22;7462;53.530;9.414;2023-03-23T01:15:38;10.50;99.90
14741;DHT22;7462;53.530;9.414;2023-03-23T01:18:05;10.50;99.90
14741;DHT22;7462;53.530;9.414;2023-03-23T01:20:32;10.50;99.90
14741;DHT22;7462;53.530;9.414;2023-03-23T01:23:01;10.50;99.90
14741;DHT22;7462;53.530;9.414;2023-03-23T01:25:30;10.50;99.90
14741;DHT22;7462;53.530;9.414;2023-03-23T01:27:58;10.50;99.90
14741;DHT22;7462;53.530;9.414;2023-03-23T01:30:25;10.50;99.90
14741;DHT22;7462;53.530;9.414;2023-03-23T01:32:53;10.50;99.90
14741;DHT22;7462;53.530;9.414;2023-03-23T01:35:21;10.50;99.90
14741;DHT22;7462;53.530;9.414;2023-03-23T01:37:48;10.50;99.90
14741;DHT22;7462;53.530;9.414;2023-03-23T01:40:17;10.50;99.90
14741;DHT22;7462;53.530;9.414;2023-03-23T01:42:44;10.50;99.90
14741;DHT22;7462;53.530;9.414;2023-03-23T01:45:24;10.50;99.90
14741;DHT22;7462;53.530;9.414;2023-03-23T01:48:04;10.50;99.90
14741;DHT22;7462;53.530;9.414;2023-03-23T01:50:37;10.50;99.90
14741;DHT22;7462;53.530;9.414;2023-03-23T01:53:08;10.50;99.90
14741;DHT22;7462;53.530;9.414;2023-03-23T01:55:40;10.50;99.90
14741;DHT22;7462;53.530;9.414;2023-03-23T01:58:08;10.50;99.90
14741;DHT22;7462;53.530;9.414;2023-03-23T02:00:37;10.60;99.90
14741;DHT22;7462;53.530;9.414;2023-03-23T02:03:06;10.60;99.90
14741;DHT22;7462;53.530;9.414;2023-03-23T02:05:38;10.60;99.90
14741;DHT22;7462;53.530;9.414;2023-03-23T02:08:27;10.60;99.90
14741;DHT22;7462;53.530;9.414;2023-03-23T02:10:56;10.60;99.90
14741;DHT22;7462;53.530;9.414;2023-03-23T02:13:23;10.50;99.90
14741;DHT22;7462;53.530;9.414;2023-03-23T02:15:59;10.60;99.90
14741;DHT22;7462;53.530;9.414;2023-03-23T02:18:37;10.60;99.90
14741;DHT22;7462;53.530;9.414;2023-03-23T02:21:26;10.60;99.90
14741;DHT22;7462;53.530;9.414;2023-03-23T02:27:12;10.60;99.90
14741;DHT22;7462;53.530;9.414;2023-03-23T02:29:48;10.60;99.90
14741;DHT22;7462;53.530;9.414;2023-03-23T02:32:32;10.60;99.90
14741;DHT22;7462;53.530;9.414;2023-03-23T02:35:08;10.60;99.90
14741;DHT22;7462;53.530;9.414;2023-03-23T02:37:40;10.60;99.90
14741;DHT22;7462;53.530;9.414;2023-03-23T02:40:13;10.60;99.90
14741;DHT22;7462;53.530;9.414;2023-03-23T02:42:45;10.60;99.90
14741;DHT22;7462;53.530;9.414;2023-03-23T02:45:15;10.60;99.90
14741;DHT22;7462;53.530;9.414;2023-03-23T02:47:46;10.60;99.90
14741;DHT22;7462;53.530;9.414;2023-03-23T02:50:16;10.60;99.90
14741;DHT22;7462;53.530;9.414;2023-03-23T02:52:46;10.60;99.90
14741;DHT22;7462;53.530;9.414;2023-03-23T02:55:14;10.70;99.90
14741;DHT22;7462;53.530;9.414;2023-03-23T02:57:41;10.60;99.90
14741;DHT22;7462;53.530;9.414;2023-03-23T03:00:14;10.60;99.90
14741;DHT22;7462;53.530;9.414;2023-03-23T03:02:43;10.60;99.90
14741;DHT22;7462;53.530;9.414;2023-03-23T03:05:17;10.60;99.90
14741;DHT22;7462;53.530;9.414;2023-03-23T03:07:55;10.60;99.90
14741;DHT22;7462;53.530;9.414;2023-03-23T03:10:29;10.60;99.90
14741;DHT22;7462;53.530;9.414;2023-03-23T03:13:04;10.70;99.90
14741;DHT22;7462;53.530;9.414;2023-03-23T03:15:35;10.70;99.90
14741;DHT22;7462;53.530;9.414;2023-03-23T03:18:08;10.60;99.90
14741;DHT22;7462;53.530;9.414;2023-03-23T03:20:43;10.60;99.90
14741;DHT22;7462;53.530;9.414;2023-03-23T03:23:14;10.60;99.90
14741;DHT22;7462;53.530;9.414;2023-03-23T03:25:44;10.70;99.90
14741;DHT22;7462;53.530;9.414;2023-03-23T03:28:21;10.70;99.90
14741;DHT22;7462;53.530;9.414;2023-03-23T03:30:53;10.70;99.90
14741;DHT22;7462;53.530;9.414;2023-03-23T03:33:22;10.70;99.90
14741;DHT22;7462;53.530;9.414;2023-03-23T03:35:55;10.70;99.90
14741;DHT22;7462;53.530;9.414;2023-03-23T03:38:23;10.70;99.90
14741;DHT22;7462;53.530;9.414;2023-03-23T03:40:52;10.70;99.90
14741;DHT22;7462;53.530;9.414;2023-03-23T03:43:19;10.70;99.90
14741;DHT22;7462;53.530;9.414;2023-03-23T03:45:46;10.80;99.90
14741;DHT22;7462;53.530;9.414;2023-03-23T03:48:13;10.70;99.90
14741;DHT22;7462;53.530;9.414;2023-03-23T03:50:40;10.80;99.90
14741;DHT22;7462;53.530;9.414;2023-03-23T03:53:09;10.80;99.90
14741;DHT22;7462;53.530;9.414;2023-03-23T03:55:37;10.80;99.90
14741;DHT22;7462;53.530;9.414;2023-03-23T03:58:09;10.80;99.90
14741;DHT22;7462;53.530;9.414;2023-03-23T04:01:11;10.80;99.90
14741;DHT22;7462;53.530;9.414;2023-03-23T04:03:40;10.80;99.90
14741;DHT22;7462;53.530;9.414;2023-03-23T04:06:14;10.70;99.90
14741;DHT22;7462;53.530;9.414;2023-03-23T04:08:43;10.70;99.90
14741;DHT22;7462;53.530;9.414;2023-03-23T04:11:14;10.70;99.90
14741;DHT22;7462;53.530;9.414;2023-03-23T04:13:41;10.70;99.90
14741;DHT22;7462;53.530;9.414;2023-03-23T04:16:18;10.70;99.90
14741;DHT22;7462;53.530;9.414;2023-03-23T04:18:47;10.70;99.90
14741;DHT22;7462;53.530;9.414;2023-03-23T04:21:16;10.70;99.90
14741;DHT22;7462;53.530;9.414;2023-03-23T04:23:48;10.70;99.90
14741;DHT22;7462;53.530;9.414;2023-03-23T04:26:15;10.70;99.90
14741;DHT22;7462;53.530;9.414;2023-03-23T04:28:46;10.70;99.90
14741;DHT22;7462;53.530;9.414;2023-03-23T04:31:34;10.70;99.90
14741;DHT22;7462;53.530;9.414;2023-03-23T04:34:21;10.70;99.90
14741;DHT22;7462;53.530;9.414;2023-03-23T04:36:51;10.70;99.90
14741;DHT22;7462;53.530;9.414;2023-03-23T04:39:24;10.70;99.90
14741;DHT22;7462;53.530;9.414;2023-03-23T04:41:54;10.70;99.90
14741;DHT22;7462;53.530;9.414;2023-03-23T04:44:45;10.60;99.90
14741;DHT22;7462;53.530;9.414;2023-03-23T04:47:20;10.60;99.90
14741;DHT22;7462;53.530;9.414;2023-03-23T04:49:54;10.60;99.90
14741;DHT22;7462;53.530;9.414;2023-03-23T04:52:27;10.50;99.90
14741;DHT22;7462;53.530;9.414;2023-03-23T04:55:01;10.50;99.90
14741;DHT22;7462;53.530;9.414;2023-03-23T04:57:29;10.50;99.90
14741;DHT22;7462;53.530;9.414;2023-03-23T05:00:16;10.60;99.90
14741;DHT22;7462;53.530;9.414;2023-03-23T05:02:48;10.50;99.90
14741;DHT22;7462;53.530;9.414;2023-03-23T05:05:20;10.50;99.90
14741;DHT22;7462;53.530;9.414;2023-03-23T05:07:49;10.50;99.90
14741;DHT22;7462;53.530;9.414;2023-03-23T05:10:21;10.50;99.90
14741;DHT22;7462;53.530;9.414;2023-03-23T05:12:49;10.50;99.90
14741;DHT22;7462;53.530;9.414;2023-03-23T05:15:18;10.60;99.90
14741;DHT22;7462;53.530;9.414;2023-03-23T05:17:45;10.60;99.90
14741;DHT22;7462;53.530;9.414;2023-03-23T05:20:18;10.50;99.90
14741;DHT22;7462;53.530;9.414;2023-03-23T05:22:49;10.50;99.90
14741;DHT22;7462;53.530;9.414;2023-03-23T05:25:22;10.50;99.90
14741;DHT22;7462;53.530;9.414;2023-03-23T05:27:57;10.60;99.90
14741;DHT22;7462;53.530;9.414;2023-03-23T05:30:44;10.60;99.90
14741;DHT22;7462;53.530;9.414;2023-03-23T05:33:13;10.60;99.90
14741;DHT22;7462;53.530;9.414;2023-03-23T05:36:10;10.60;99.90
14741;DHT22;7462;53.530;9.414;2023-03-23T05:38:57;10.60;99.90
14741;DHT22;7462;53.530;9.414;2023-03-23T05:41:40;10.50;99.90
14741;DHT22;7462;53.530;9.414;2023-03-23T05:44:07;10.60;99.90
14741;DHT22;7462;53.530;9.414;2023-03-23T05:46:46;10.60;99.90
14741;DHT22;7462;53.530;9.414;2023-03-23T05:49:13;10.60;99.90
14741;DHT22;7462;53.530;9.414;2023-03-23T05:51:42;10.50;99.90
14741;DHT22;7462;53.530;9.414;2023-03-23T05:54:10;10.50;99.90
14741;DHT22;7462;53.530;9.414;2023-03-23T05:56:39;10.50;99.90
14741;DHT22;7462;53.530;9.414;2023-03-23T05:59:26;10.50;99.90
14741;DHT22;7462;53.530;9.414;2023-03-23T06:01:55;10.50;99.90
14741;DHT22;7462;53.530;9.414;2023-03-23T06:04:23;10.50;99.90
14741;DHT22;7462;53.530;9.414;2023-03-23T06:07:08;10.50;99.90
14741;DHT22;7462;53.530;9.414;2023-03-23T06:09:40;10.50;99.90
14741;DHT22;7462;53.530;9.414;2023-03-23T06:12:29;10.50;99.90
14741;DHT22;7462;53.530;9.414;2023-03-23T06:15:18;10.50;99.90
14741;DHT22;7462;53.530;9.414;2023-03-23T06:18:07;10.60;99.90
14741;DHT22;7462;53.530;9.414;2023-03-23T06:20:54;10.60;99.90
14741;DHT22;7462;53.530;9.414;2023-03-23T06:23:29;10.70;99.90
14741;DHT22;7462;53.530;9.414;2023-03-23T06:25:59;10.70;99.90
14741;DHT22;7462;53.530;9.414;2023-03-23T06:28:28;10.70;99.90
14741;DHT22;7462;53.530;9.414;2023-03-23T06:30:58;10.80;99.90
14741;DHT22;7462;53.530;9.414;2023-03-23T06:33:26;10.90;99.90
14741;DHT22;7462;53.530;9.414;2023-03-23T06:36:11;10.90;99.90
14741;DHT22;7462;53.530;9.414;2023-03-23T06:38:46;10.90;99.90
14741;DHT22;7462;53.530;9.414;2023-03-23T06:41:15;11.00;99.90
14741;DHT22;7462;53.530;9.414;2023-03-23T06:43:43;11.00;99.90
14741;DHT22;7462;53.530;9.414;2023-03-23T06:46:14;11.00;99.90
14741;DHT22;7462;53.530;9.414;2023-03-23T06:48:41;11.10;99.90
14741;DHT22;7462;53.530;9.414;2023-03-23T06:51:12;11.30;99.90
14741;DHT22;7462;53.530;9.414;2023-03-23T06:53:41;11.40;99.90
14741;DHT22;7462;53.530;9.414;2023-03-23T06:56:12;11.40;99.90
14741;DHT22;7462;53.530;9.414;2023-03-23T06:58:41;11.40;99.90
14741;DHT22;7462;53.530;9.414;2023-03-23T07:01:10;11.40;99.90
14741;DHT22;7462;53.530;9.414;2023-03-23T07:03:45;11.30;99.90
14741;DHT22;7462;53.530;9.414;2023-03-23T07:06:16;11.30;99.90
14741;DHT22;7462;53.530;9.414;2023-03-23T07:08:49;11.30;99.90
14741;DHT22;7462;53.530;9.414;2023-03-23T07:11:21;11.30;99.90
14741;DHT22;7462;53.530;9.414;2023-03-23T07:13:49;11.20;99.90
14741;DHT22;7462;53.530;9.414;2023-03-23T07:16:19;11.20;99.90
14741;DHT22;7462;53.530;9.414;2023-03-23T07:18:46;11.20;99.90
14741;DHT22;7462;53.530;9.414;2023-03-23T07:21:14;11.20;99.90
14741;DHT22;7462;53.530;9.414;2023-03-23T07:23:41;11.10;99.90
14741;DHT22;7462;53.530;9.414;2023-03-23T07:26:12;11.10;99.90
14741;DHT22;7462;53.530;9.414;2023-03-23T07:28:46;11.10;99.90
14741;DHT22;7462;53.530;9.414;2023-03-23T07:31:24;11.10;99.90
14741;DHT22;7462;53.530;9.414;2023-03-23T07:33:51;11.10;99.90
14741;DHT22;7462;53.530;9.414;2023-03-23T07:36:19;11.00;99.90
14741;DHT22;7462;53.530;9.414;2023-03-23T07:38:46;10.80;99.90
14741;DHT22;7462;53.530;9.414;2023-03-23T07:41:15;10.60;99.90
14741;DHT22;7462;53.530;9.414;2023-03-23T07:43:43;10.50;99.90
14741;DHT22;7462;53.530;9.414;2023-03-23T07:46:33;10.50;99.90
14741;DHT22;7462;53.530;9.414;2023-03-23T07:49:10;10.50;99.90
14741;DHT22;7462;53.530;9.414;2023-03-23T07:51:43;10.50;99.90
14741;DHT22;7462;53.530;9.414;2023-03-23T07:54:12;10.50;99.90
14741;DHT22;7462;53.530;9.414;2023-03-23T07:56:54;10.60;99.90
14741;DHT22;7462;53.530;9.414;2023-03-23T07:59:25;10.60;99.90
14741;DHT22;7462;53.530;9.414;2023-03-23T08:01:55;10.60;99.90
14741;DHT22;7462;53.530;9.414;2023-03-23T08:04:32;10.70;99.90
14741;DHT22;7462;53.530;9.414;2023-03-23T08:07:13;10.70;99.90
14741;DHT22;7462;53.530;9.414;2023-03-23T08:09:51;10.70;99.90
14741;DHT22;7462;53.530;9.414;2023-03-23T08:12:37;10.80;99.90
14741;DHT22;7462;53.530;9.414;2023-03-23T08:15:23;10.80;99.90
14741;DHT22;7462;53.530;9.414;2023-03-23T08:18:11;10.80;99.90
14741;DHT22;7462;53.530;9.414;2023-03-23T08:21:17;10.80;99.90
14741;DHT22;7462;53.530;9.414;2023-03-23T08:24:05;10.80;99.90
14741;DHT22;7462;53.530;9.414;2023-03-23T08:26:52;10.80;99.90
14741;DHT22;7462;53.530;9.414;2023-03-23T08:29:34;10.80;99.90
14741;DHT22;7462;53.530;9.414;2023-03-23T08:32:15;10.80;99.90
14741;DHT22;7462;53.530;9.414;2023-03-23T08:34:53;10.80;99.90
14741;DHT22;7462;53.530;9.414;2023-03-23T08:37:49;11.00;99.90
14741;DHT22;7462;53.530;9.414;2023-03-23T08:40:36;11.00;99.90
14741;DHT22;7462;53.530;9.414;2023-03-23T08:43:22;11.00;99.90
14741;DHT22;7462;53.530;9.414;2023-03-23T08:46:08;11.00;99.90
14741;DHT22;7462;53.530;9.414;2023-03-23T08:48:56;11.10;99.90
14741;DHT22;7462;53.530;9.414;2023-03-23T08:51:43;11.10;99.90
14741;DHT22;7462;53.530;9.414;2023-03-23T08:54:30;11.00;99.90
14741;DHT22;7462;53.530;9.414;2023-03-23T08:57:18;11.00;99.90
14741;DHT22;7462;53.530;9.414;2023-03-23T09:00:10;11.10;99.90
14741;DHT22;7462;53.530;9.414;2023-03-23T09:03:01;11.10;99.90
14741;DHT22;7462;53.530;9.414;2023-03-23T09:05:49;11.20;99.90
14741;DHT22;7462;53.530;9.414;2023-03-23T09:08:23;11.20;99.90
14741;DHT22;7462;53.530;9.414;2023-03-23T09:10:50;11.30;99.90
14741;DHT22;7462;53.530;9.414;2023-03-23T09:13:18;11.30;99.90
14741;DHT22;7462;53.530;9.414;2023-03-23T09:15:45;11.40;99.90
14741;DHT22;7462;53.530;9.414;2023-03-23T09:18:12;11.50;99.90
14741;DHT22;7462;53.530;9.414;2023-03-23T09:20:39;11.70;99.90
14741;DHT22;7462;53.530;9.414;2023-03-23T09:23:07;12.00;99.90
14741;DHT22;7462;53.530;9.414;2023-03-23T09:25:36;12.70;99.90
14741;DHT22;7462;53.530;9.414;2023-03-23T09:28:03;13.50;99.90
14741;DHT22;7462;53.530;9.414;2023-03-23T09:30:32;13.90;99.90
14741;DHT22;7462;53.530;9.414;2023-03-23T09:33:00;13.90;99.90
14741;DHT22;7462;53.530;9.414;2023-03-23T09:35:28;14.10;99.90
14741;DHT22;7462;53.530;9.414;2023-03-23T09:37:57;14.10;99.90
14741;DHT22;7462;53.530;9.414;2023-03-23T09:40:29;14.00;99.90
14741;DHT22;7462;53.530;9.414;2023-03-23T09:46:13;13.90;99.90
14741;DHT22;7462;53.530;9.414;2023-03-23T09:48:49;13.80;99.90
14741;DHT22;7462;53.530;9.414;2023-03-23T09:51:25;13.60;99.90
14741;DHT22;7462;53.530;9.414;2023-03-23T09:53:59;13.40;99.90
14741;DHT22;7462;53.530;9.414;2023-03-23T09:56:30;13.20;99.90
14741;DHT22;7462;53.530;9.414;2023-03-23T09:59:04;13.10;99.90
14741;DHT22;7462;53.530;9.414;2023-03-23T10:01:35;13.00;99.90
14741;DHT22;7462;53.530;9.414;2023-03-23T10:04:07;13.10;99.90
14741;DHT22;7462;53.530;9.414;2023-03-23T10:06:36;13.10;99.90
14741;DHT22;7462;53.530;9.414;2023-03-23T10:09:05;13.00;99.90
14741;DHT22;7462;53.530;9.414;2023-03-23T10:11:42;13.00;99.90
14741;DHT22;7462;53.530;9.414;2023-03-23T10:14:22;13.20;99.90
14741;DHT22;7462;53.530;9.414;2023-03-23T10:17:00;13.30;99.90
14741;DHT22;7462;53.530;9.414;2023-03-23T10:19:39;13.40;99.90
14741;DHT22;7462;53.530;9.414;2023-03-23T10:22:10;13.50;99.90
14741;DHT22;7462;53.530;9.414;2023-03-23T10:24:42;13.50;99.90
14741;DHT22;7462;53.530;9.414;2023-03-23T10:27:22;13.40;99.90
14741;DHT22;7462;53.530;9.414;2023-03-23T10:29:57;13.40;99.90
14741;DHT22;7462;53.530;9.414;2023-03-23T10:32:39;13.40;99.90
14741;DHT22;7462;53.530;9.414;2023-03-23T10:35:11;13.50;99.90
14741;DHT22;7462;53.530;9.414;2023-03-23T10:37:43;13.60;99.90
14741;DHT22;7462;53.530;9.414;2023-03-23T10:40:15;13.70;99.90
14741;DHT22;7462;53.530;9.414;2023-03-23T10:42:43;13.60;99.90
14741;DHT22;7462;53.530;9.414;2023-03-23T10:45:17;13.50;99.90
14741;DHT22;7462;53.530;9.414;2023-03-23T10:47:49;13.50;99.90
14741;DHT22;7462;53.530;9.414;2023-03-23T10:50:22;13.50;99.90
14741;DHT22;7462;53.530;9.414;2023-03-23T10:52:51;13.60;99.90
14741;DHT22;7462;53.530;9.414;2023-03-23T10:55:22;13.70;99.90
14741;DHT22;7462;53.530;9.414;2023-03-23T10:58:00;13.70;99.90
14741;DHT22;7462;53.530;9.414;2023-03-23T11:00:30;13.70;99.90
14741;DHT22;7462;53.530;9.414;2023-03-23T11:02:59;13.70;99.90
14741;DHT22;7462;53.530;9.414;2023-03-23T11:05:34;13.60;99.90
14741;DHT22;7462;53.530;9.414;2023-03-23T11:08:02;13.70;99.90
14741;DHT22;7462;53.530;9.414;2023-03-23T11:10:36;13.70;99.90
14741;DHT22;7462;53.530;9.414;2023-03-23T11:13:04;13.70;99.90
14741;DHT22;7462;53.530;9.414;2023-03-23T11:15:39;13.80;99.90
14741;DHT22;7462;53.530;9.414;2023-03-23T11:18:11;13.90;99.90
14741;DHT22;7462;53.530;9.414;2023-03-23T11:20:42;14.00;99.90
14741;DHT22;7462;53.530;9.414;2023-03-23T11:23:19;14.10;99.90
14741;DHT22;7462;53.530;9.414;2023-03-23T11:25:57;14.10;99.90
14741;DHT22;7462;53.530;9.414;2023-03-23T11:28:31;14.10;99.90
14741;DHT22;7462;53.530;9.414;2023-03-23T11:31:03;14.00;99.90
14741;DHT22;7462;53.530;9.414;2023-03-23T11:33:36;13.90;99.90
14741;DHT22;7462;53.530;9.414;2023-03-23T11:36:06;14.20;99.90
14741;DHT22;7462;53.530;9.414;2023-03-23T11:38:34;14.20;99.90
14741;DHT22;7462;53.530;9.414;2023-03-23T11:41:01;14.20;99.90
14741;DHT22;7462;53.530;9.414;2023-03-23T11:43:40;14.00;99.90
14741;DHT22;7462;53.530;9.414;2023-03-23T11:46:15;13.90;99.90
14741;DHT22;7462;53.530;9.414;2023-03-23T11:48:48;13.80;99.90
14741;DHT22;7462;53.530;9.414;2023-03-23T11:51:22;13.60;99.90
14741;DHT22;7462;53.530;9.414;2023-03-23T11:53:59;13.50;99.90
14741;DHT22;7462;53.530;9.414;2023-03-23T11:56:30;13.40;99.90
14741;DHT22;7462;53.530;9.414;2023-03-23T11:58:59;13.30;99.90
14741;DHT22;7462;53.530;9.414;2023-03-23T12:01:47;13.50;99.90
14741;DHT22;7462;53.530;9.414;2023-03-23T12:04:39;13.60;99.90
14741;DHT22;7462;53.530;9.414;2023-03-23T12:07:33;13.70;99.90
14741;DHT22;7462;53.530;9.414;2023-03-23T12:10:14;13.70;99.90
14741;DHT22;7462;53.530;9.414;2023-03-23T12:12:50;13.60;99.90
14741;DHT22;7462;53.530;9.414;2023-03-23T12:15:24;13.60;99.90
14741;DHT22;7462;53.530;9.414;2023-03-23T12:18:00;13.80;99.90
14741;DHT22;7462;53.530;9.414;2023-03-23T12:20:41;14.00;99.90
14741;DHT22;7462;53.530;9.414;2023-03-23T12:23:22;14.20;99.90
14741;DHT22;7462;53.530;9.414;2023-03-23T12:29:18;14.10;99.90
14741;DHT22;7462;53.530;9.414;2023-03-23T12:31:56;14.00;99.90
14741;DHT22;7462;53.530;9.414;2023-03-23T12:34:36;14.00;99.90
14741;DHT22;7462;53.530;9.414;2023-03-23T12:37:18;14.00;99.90
14741;DHT22;7462;53.530;9.414;2023-03-23T12:40:07;14.10;99.90
14741;DHT22;7462;53.530;9.414;2023-03-23T12:42:54;14.20;99.90
14741;DHT22;7462;53.530;9.414;2023-03-23T12:45:42;14.20;99.90
14741;DHT22;7462;53.530;9.414;2023-03-23T12:48:13;14.10;99.90
14741;DHT22;7462;53.530;9.414;2023-03-23T12:50:45;14.10;99.90
14741;DHT22;7462;53.530;9.414;2023-03-23T12:53:20;14.20;99.90
14741;DHT22;7462;53.530;9.414;2023-03-23T12:56:02;14.50;99.90
14741;DHT22;7462;53.530;9.414;2023-03-23T12:58:36;14.60;99.90
14741;DHT22;7462;53.530;9.414;2023-03-23T13:01:10;14.60;99.90
14741;DHT22;7462;53.530;9.414;2023-03-23T13:03:41;14.60;99.90
14741;DHT22;7462;53.530;9.414;2023-03-23T13:06:15;14.30;99.90
14741;DHT22;7462;53.530;9.414;2023-03-23T13:08:48;14.30;99.90
14741;DHT22;7462;53.530;9.414;2023-03-23T13:11:20;14.00;99.90
14741;DHT22;7462;53.530;9.414;2023-03-23T13:13:51;13.90;99.90
14741;DHT22;7462;53.530;9.414;2023-03-23T13:16:27;13.80;99.90
14741;DHT22;7462;53.530;9.414;2023-03-23T13:19:03;13.80;99.90
14741;DHT22;7462;53.530;9.414;2023-03-23T13:21:37;13.80;99.90
14741;DHT22;7462;53.530;9.414;2023-03-23T13:24:10;13.70;99.90
14741;DHT22;7462;53.530;9.414;2023-03-23T13:26:41;13.20;99.90
14741;DHT22;7462;53.530;9.414;2023-03-23T13:29:12;12.80;99.90
14741;DHT22;7462;53.530;9.414;2023-03-23T13:31:41;12.60;99.90
14741;DHT22;7462;53.530;9.414;2023-03-23T13:34:15;12.50;99.90
14741;DHT22;7462;53.530;9.414;2023-03-23T13:36:53;12.40;99.90
14741;DHT22;7462;53.530;9.414;2023-03-23T13:39:24;12.40;99.90
14741;DHT22;7462;53.530;9.414;2023-03-23T13:42:18;12.30;99.90
14741;DHT22;7462;53.530;9.414;2023-03-23T13:45:04;12.30;99.90
14741;DHT22;7462;53.530;9.414;2023-03-23T13:47:37;12.20;99.90
14741;DHT22;7462;53.530;9.414;2023-03-23T13:50:11;12.00;99.90
14741;DHT22;7462;53.530;9.414;2023-03-23T13:52:50;11.90;99.90
14741;DHT22;7462;53.530;9.414;2023-03-23T13:55:31;11.70;99.90
14741;DHT22;7462;53.530;9.414;2023-03-23T13:58:11;11.70;99.90
14741;DHT22;7462;53.530;9.414;2023-03-23T14:00:49;11.70;99.90
14741;DHT22;7462;53.530;9.414;2023-03-23T14:03:26;11.80;99.90
14741;DHT22;7462;53.530;9.414;2023-03-23T14:06:04;11.90;99.90
14741;DHT22;7462;53.530;9.414;2023-03-23T14:08:44;11.90;99.90
14741;DHT22;7462;53.530;9.414;2023-03-23T14:11:17;12.00;99.90
14741;DHT22;7462;53.530;9.414;2023-03-23T14:13:57;12.00;99.90
14741;DHT22;7462;53.530;9.414;2023-03-23T14:16:31;12.00;99.90
14741;DHT22;7462;53.530;9.414;2023-03-23T14:19:00;12.00;99.90
14741;DHT22;7462;53.530;9.414;2023-03-23T14:21:35;12.00;99.90
14741;DHT22;7462;53.530;9.414;2023-03-23T14:24:10;12.10;99.90
14741;DHT22;7462;53.530;9.414;2023-03-23T14:26:38;12.20;99.90
14741;DHT22;7462;53.530;9.414;2023-03-23T14:29:06;12.40;99.90
14741;DHT22;7462;53.530;9.414;2023-03-23T14:31:35;12.40;99.90
14741;DHT22;7462;53.530;9.414;2023-03-23T14:34:04;12.50;99.90
14741;DHT22;7462;53.530;9.414;2023-03-23T14:36:37;12.50;99.90
14741;DHT22;7462;53.530;9.414;2023-03-23T14:39:12;12.60;99.90
14741;DHT22;7462;53.530;9.414;2023-03-23T14:41:41;12.60;99.90
14741;DHT22;7462;53.530;9.414;2023-03-23T14:44:13;12.60;99.90
14741;DHT22;7462;53.530;9.414;2023-03-23T14:46:42;12.70;99.90
14741;DHT22;7462;53.530;9.414;2023-03-23T14:49:13;12.70;99.90
14741;DHT22;7462;53.530;9.414;2023-03-23T14:51:47;12.70;99.90
14741;DHT22;7462;53.530;9.414;2023-03-23T14:54:22;12.70;99.90
14741;DHT22;7462;53.530;9.414;2023-03-23T14:56:49;12.70;99.90
14741;DHT22;7462;53.530;9.414;2023-03-23T14:59:17;12.60;99.90
14741;DHT22;7462;53.530;9.414;2023-03-23T15:01:46;12.70;99.90
14741;DHT22;7462;53.530;9.414;2023-03-23T15:04:17;12.80;99.90
14741;DHT22;7462;53.530;9.414;2023-03-23T15:06:49;12.80;99.90
14741;DHT22;7462;53.530;9.414;2023-03-23T15:09:20;12.70;99.90
14741;DHT22;7462;53.530;9.414;2023-03-23T15:11:53;12.60;99.90
14741;DHT22;7462;53.530;9.414;2023-03-23T15:14:24;12.60;99.90
14741;DHT22;7462;53.530;9.414;2023-03-23T15:16:55;12.70;99.90
14741;DHT22;7462;53.530;9.414;2023-03-23T15:19:25;12.90;99.90
14741;DHT22;7462;53.530;9.414;2023-03-23T15:21:55;12.90;99.90
14741;DHT22;7462;53.530;9.414;2023-03-23T15:24:32;12.90;99.90
14741;DHT22;7462;53.530;9.414;2023-03-23T15:27:13;13.00;99.90
14741;DHT22;7462;53.530;9.414;2023-03-23T15:29:48;13.00;99.90
14741;DHT22;7462;53.530;9.414;2023-03-23T15:32:22;13.00;99.90
14741;DHT22;7462;53.530;9.414;2023-03-23T15:34:49;12.90;99.90
14741;DHT22;7462;53.530;9.414;2023-03-23T15:37:20;12.90;99.90
14741;DHT22;7462;53.530;9.414;2023-03-23T15:39:49;12.80;99.90
14741;DHT22;7462;53.530;9.414;2023-03-23T15:42:22;12.70;99.90
14741;DHT22;7462;53.530;9.414;2023-03-23T15:45:06;12.50;99.90
14741;DHT22;7462;53.530;9.414;2023-03-23T15:47:45;12.30;99.90
14741;DHT22;7462;53.530;9.414;2023-03-23T15:50:13;12.00;99.90
14741;DHT22;7462;53.530;9.414;2023-03-23T15:52:41;12.00;99.90
14741;DHT22;7462;53.530;9.414;2023-03-23T15:55:35;11.90;99.90
14741;DHT22;7462;53.530;9.414;2023-03-23T15:58:09;12.00;99.90
14741;DHT22;7462;53.530;9.414;2023-03-23T16:00:38;12.10;99.90
14741;DHT22;7462;53.530;9.414;2023-03-23T16:03:10;12.10;99.90
14741;DHT22;7462;53.530;9.414;2023-03-23T16:05:38;12.10;99.90
14741;DHT22;7462;53.530;9.414;2023-03-23T16:08:10;12.10;99.90
14741;DHT22;7462;53.530;9.414;2023-03-23T16:10:41;12.00;99.90
14741;DHT22;7462;53.530;9.414;2023-03-23T16:13:11;11.90;99.90
14741;DHT22;7462;53.530;9.414;2023-03-23T16:15:40;11.90;99.90
14741;DHT22;7462;53.530;9.414;2023-03-23T16:18:15;11.90;99.90
14741;DHT22;7462;53.530;9.414;2023-03-23T16:20:44;11.90;99.90
14741;DHT22;7462;53.530;9.414;2023-03-23T16:23:12;11.80;99.90
14741;DHT22;7462;53.530;9.414;2023-03-23T16:25:42;11.80;99.90
14741;DHT22;7462;53.530;9.414;2023-03-23T16:28:11;11.80;99.90
14741;DHT22;7462;53.530;9.414;2023-03-23T16:30:40;11.80;99.90
14741;DHT22;7462;53.530;9.414;2023-03-23T16:33:09;11.70;99.90
14741;DHT22;7462;53.530;9.414;2023-03-23T16:35:37;11.70;99.90